EJM512 KSTL-KAPA
Flight info
| Callsign | EJM512 |
|---|---|
| Flight time | N/A |
| Altitude | 40000 |
| Route | BRAKK5 HLV/N0463F430 FRAAY DUNNN6 |
| Aircraft | FA50/M-SDFGHIM1RWXY/H |
Departure
| Time | 2026-05-06 10:59 |
|---|---|
| Airport | St. Louis Lambert International Airport (KSTL) |
Arrival
| Time | N/A |
|---|---|
| Airport | Centennial Airport (KAPA) |
| Time | Latitude | Longitude | Altitude | Speed | Heading |
|---|---|---|---|---|---|
| 2026-05-06 10:40 | 38.74933 | -90.35300 | 610 ft | 0 kts | 72° |
| 2026-05-06 10:50 | 38.74937 | -90.35294 | 610 ft | 3 kts | 41° |
| 2026-05-06 10:50 | 38.74963 | -90.35307 | 610 ft | 6 kts | 307° |
| 2026-05-06 10:50 | 38.74991 | -90.35358 | 610 ft | 8 kts | 297° |
| 2026-05-06 10:50 | 38.74997 | -90.35446 | 610 ft | 11 kts | 271° |
| 2026-05-06 10:51 | 38.74998 | -90.35558 | 610 ft | 14 kts | 269° |
| 2026-05-06 10:51 | 38.74965 | -90.35659 | 610 ft | 12 kts | 179° |
| 2026-05-06 10:51 | 38.74881 | -90.35647 | 610 ft | 12 kts | 164° |
| 2026-05-06 10:51 | 38.74823 | -90.35569 | 610 ft | 13 kts | 122° |
| 2026-05-06 10:52 | 38.74805 | -90.35532 | 610 ft | 0 kts | 121° |
| 2026-05-06 10:52 | 38.74791 | -90.35503 | 610 ft | 8 kts | 123° |
| 2026-05-06 10:52 | 38.74745 | -90.35406 | 610 ft | 17 kts | 122° |
| 2026-05-06 10:52 | 38.74669 | -90.35258 | 610 ft | 20 kts | 123° |
| 2026-05-06 10:53 | 38.74597 | -90.35112 | 610 ft | 18 kts | 122° |
| 2026-05-06 10:53 | 38.74533 | -90.34980 | 610 ft | 17 kts | 123° |
| 2026-05-06 10:53 | 38.74474 | -90.34861 | 610 ft | 15 kts | 122° |
| 2026-05-06 10:53 | 38.74421 | -90.34754 | 610 ft | 14 kts | 121° |
| 2026-05-06 10:54 | 38.74373 | -90.34656 | 610 ft | 12 kts | 126° |
| 2026-05-06 10:54 | 38.74329 | -90.34640 | 610 ft | 10 kts | 208° |
| 2026-05-06 10:54 | 38.74277 | -90.34679 | 610 ft | 8 kts | 212° |
| 2026-05-06 10:54 | 38.74236 | -90.34711 | 610 ft | 7 kts | 212° |
| 2026-05-06 10:55 | 38.74181 | -90.34756 | 610 ft | 13 kts | 212° |
| 2026-05-06 10:55 | 38.74104 | -90.34810 | 610 ft | 11 kts | 180° |
| 2026-05-06 10:55 | 38.74058 | -90.34747 | 610 ft | 11 kts | 123° |
| 2026-05-06 10:55 | 38.74004 | -90.34640 | 610 ft | 16 kts | 123° |
| 2026-05-06 10:56 | 38.73947 | -90.34520 | 610 ft | 15 kts | 123° |
| 2026-05-06 10:56 | 38.73893 | -90.34415 | 610 ft | 13 kts | 124° |
| 2026-05-06 10:56 | 38.73867 | -90.34366 | 610 ft | 1 kts | 133° |
| 2026-05-06 10:56 | 38.73870 | -90.34344 | 610 ft | 7 kts | 298° |
| 2026-05-06 10:57 | 38.73896 | -90.34419 | 610 ft | 11 kts | 300° |
| 2026-05-06 10:57 | 38.73935 | -90.34522 | 610 ft | 13 kts | 253° |
| 2026-05-06 10:57 | 38.73877 | -90.34586 | 610 ft | 11 kts | 214° |
| 2026-05-06 10:57 | 38.73843 | -90.34616 | 610 ft | 0 kts | 214° |
| 2026-05-06 10:58 | 38.73842 | -90.34617 | 610 ft | 1 kts | 214° |
| 2026-05-06 10:58 | 38.73810 | -90.34645 | 610 ft | 10 kts | 225° |
| 2026-05-06 10:58 | 38.73821 | -90.34733 | 610 ft | 12 kts | 301° |
| 2026-05-06 10:59 | 38.74003 | -90.35108 | 610 ft | 94 kts | 300° |
| 2026-05-06 10:59 | 38.74497 | -90.36088 | 663 ft | 158 kts | 296° |
| 2026-05-06 10:59 | 38.75161 | -90.37300 | 1279 ft | 170 kts | 301° |
| 2026-05-06 10:59 | 38.75883 | -90.38426 | 2356 ft | 159 kts | 304° |
| 2026-05-06 11:00 | 38.76513 | -90.39638 | 3059 ft | 173 kts | 289° |
| 2026-05-06 11:00 | 38.77350 | -90.41679 | 3716 ft | 215 kts | 290° |
| 2026-05-06 11:00 | 38.77841 | -90.42808 | 4057 ft | 213 kts | 291° |
| 2026-05-06 11:00 | 38.78580 | -90.44456 | 4562 ft | 215 kts | 288° |
| 2026-05-06 11:01 | 38.79164 | -90.46216 | 5061 ft | 216 kts | 280° |
| 2026-05-06 11:01 | 38.79651 | -90.48109 | 5150 ft | 224 kts | 279° |
| 2026-05-06 11:01 | 38.80130 | -90.49960 | 5217 ft | 219 kts | 279° |
| 2026-05-06 11:01 | 38.80590 | -90.51746 | 5556 ft | 200 kts | 279° |
| 2026-05-06 11:02 | 38.81006 | -90.53336 | 6022 ft | 177 kts | 277° |
| 2026-05-06 11:02 | 38.81384 | -90.54827 | 6517 ft | 175 kts | 276° |
| 2026-05-06 11:02 | 38.81750 | -90.56315 | 7019 ft | 176 kts | 276° |
| 2026-05-06 11:02 | 38.82122 | -90.57815 | 7517 ft | 179 kts | 276° |
| 2026-05-06 11:03 | 38.82508 | -90.59392 | 8057 ft | 192 kts | 277° |
| 2026-05-06 11:03 | 38.82930 | -90.61100 | 8525 ft | 210 kts | 278° |
| 2026-05-06 11:03 | 38.83390 | -90.62943 | 8972 ft | 224 kts | 279° |
| 2026-05-06 11:03 | 38.83882 | -90.64881 | 9406 ft | 231 kts | 279° |
| 2026-05-06 11:04 | 38.84388 | -90.66843 | 9831 ft | 232 kts | 279° |
| 2026-05-06 11:04 | 38.84896 | -90.68812 | 10256 ft | 233 kts | 279° |
| 2026-05-06 11:04 | 38.85403 | -90.70785 | 10681 ft | 233 kts | 279° |
| 2026-05-06 11:04 | 38.85907 | -90.72791 | 11112 ft | 242 kts | 279° |
| 2026-05-06 11:05 | 38.86430 | -90.74885 | 11547 ft | 251 kts | 279° |
| 2026-05-06 11:05 | 38.86975 | -90.77049 | 11978 ft | 258 kts | 279° |
| 2026-05-06 11:05 | 38.87527 | -90.79232 | 12407 ft | 263 kts | 279° |
| 2026-05-06 11:05 | 38.88095 | -90.81489 | 12837 ft | 268 kts | 280° |
| 2026-05-06 11:06 | 38.88674 | -90.83780 | 13264 ft | 271 kts | 279° |
| 2026-05-06 11:06 | 38.89258 | -90.86093 | 13692 ft | 273 kts | 280° |
| 2026-05-06 11:06 | 38.89849 | -90.88423 | 14119 ft | 274 kts | 280° |
| 2026-05-06 11:06 | 38.90438 | -90.90753 | 14544 ft | 275 kts | 280° |
| 2026-05-06 11:07 | 38.91027 | -90.93099 | 14971 ft | 275 kts | 280° |
| 2026-05-06 11:07 | 38.91614 | -90.95436 | 15396 ft | 275 kts | 280° |
| 2026-05-06 11:07 | 38.92199 | -90.97769 | 15821 ft | 274 kts | 280° |
| 2026-05-06 11:07 | 38.92781 | -91.00093 | 16245 ft | 273 kts | 280° |
| 2026-05-06 11:08 | 38.93362 | -91.02424 | 16672 ft | 274 kts | 280° |
| 2026-05-06 11:08 | 38.93944 | -91.04759 | 17098 ft | 274 kts | 280° |
| 2026-05-06 11:08 | 38.94527 | -91.07095 | 17523 ft | 274 kts | 280° |
| 2026-05-06 11:08 | 38.95107 | -91.09425 | 17949 ft | 273 kts | 280° |
| 2026-05-06 11:09 | 38.95670 | -91.11685 | 18329 ft | 274 kts | 280° |
| 2026-05-06 11:09 | 38.96267 | -91.14090 | 18717 ft | 276 kts | 280° |
| 2026-05-06 11:09 | 38.96795 | -91.16474 | 19095 ft | 279 kts | 277° |
| 2026-05-06 11:09 | 38.97218 | -91.18920 | 19474 ft | 281 kts | 275° |
| 2026-05-06 11:10 | 38.97604 | -91.21394 | 19851 ft | 284 kts | 275° |
| 2026-05-06 11:10 | 38.97988 | -91.23859 | 20223 ft | 286 kts | 275° |
| 2026-05-06 11:10 | 38.98382 | -91.26391 | 20600 ft | 291 kts | 275° |
| 2026-05-06 11:10 | 38.98782 | -91.28972 | 20980 ft | 299 kts | 275° |
| 2026-05-06 11:11 | 38.99193 | -91.31645 | 21362 ft | 311 kts | 275° |
| 2026-05-06 11:11 | 38.99623 | -91.34457 | 21748 ft | 332 kts | 276° |
| 2026-05-06 11:11 | 39.00088 | -91.37504 | 22140 ft | 361 kts | 276° |
| 2026-05-06 11:11 | 39.00583 | -91.40758 | 22529 ft | 377 kts | 276° |
| 2026-05-06 11:12 | 39.01095 | -91.44100 | 22911 ft | 384 kts | 277° |
| 2026-05-06 11:12 | 39.01614 | -91.47495 | 23292 ft | 390 kts | 277° |
| 2026-05-06 11:12 | 39.02140 | -91.50939 | 23705 ft | 393 kts | 277° |
| 2026-05-06 11:12 | 39.02665 | -91.54389 | 24128 ft | 393 kts | 277° |
| 2026-05-06 11:13 | 39.03189 | -91.57835 | 24553 ft | 392 kts | 277° |
| 2026-05-06 11:13 | 39.03701 | -91.61220 | 24970 ft | 390 kts | 277° |
| 2026-05-06 11:13 | 39.04216 | -91.64642 | 25394 ft | 389 kts | 276° |
| 2026-05-06 11:13 | 39.04729 | -91.68049 | 25818 ft | 387 kts | 276° |
| 2026-05-06 11:14 | 39.05239 | -91.71454 | 26244 ft | 385 kts | 276° |
| 2026-05-06 11:14 | 39.05744 | -91.74824 | 26667 ft | 382 kts | 276° |
| 2026-05-06 11:14 | 39.06245 | -91.78184 | 27092 ft | 382 kts | 276° |
| 2026-05-06 11:14 | 39.06747 | -91.81563 | 27519 ft | 385 kts | 276° |
| 2026-05-06 11:15 | 39.07249 | -91.84942 | 27944 ft | 387 kts | 276° |
| 2026-05-06 11:15 | 39.07749 | -91.88319 | 28366 ft | 389 kts | 276° |
| 2026-05-06 11:15 | 39.08256 | -91.91747 | 28792 ft | 391 kts | 276° |
| 2026-05-06 11:15 | 39.08765 | -91.95193 | 29218 ft | 391 kts | 276° |
| 2026-05-06 11:16 | 39.09273 | -91.98636 | 29644 ft | 391 kts | 276° |
| 2026-05-06 11:16 | 39.09781 | -92.02082 | 30069 ft | 391 kts | 275° |
| 2026-05-06 11:16 | 39.10286 | -92.05519 | 30494 ft | 390 kts | 275° |
| 2026-05-06 11:16 | 39.10783 | -92.08946 | 30919 ft | 388 kts | 274° |
| 2026-05-06 11:17 | 39.11146 | -92.12369 | 31344 ft | 383 kts | 270° |
| 2026-05-06 11:17 | 39.11315 | -92.15770 | 31770 ft | 379 kts | 266° |
| 2026-05-06 11:17 | 39.11322 | -92.19101 | 32191 ft | 376 kts | 264° |
| 2026-05-06 11:17 | 39.11304 | -92.22473 | 32616 ft | 377 kts | 264° |
| 2026-05-06 11:18 | 39.11283 | -92.25851 | 33033 ft | 378 kts | 264° |
| 2026-05-06 11:18 | 39.11259 | -92.29244 | 33384 ft | 380 kts | 264° |
| 2026-05-06 11:18 | 39.11235 | -92.32658 | 33715 ft | 382 kts | 264° |
| 2026-05-06 11:18 | 39.11209 | -92.36090 | 34042 ft | 383 kts | 264° |
| 2026-05-06 11:19 | 39.11183 | -92.39540 | 34369 ft | 384 kts | 264° |
| 2026-05-06 11:19 | 39.11157 | -92.42978 | 34694 ft | 384 kts | 264° |
| 2026-05-06 11:19 | 39.11130 | -92.46411 | 35018 ft | 385 kts | 264° |
| 2026-05-06 11:19 | 39.11100 | -92.49869 | 35333 ft | 387 kts | 264° |
| 2026-05-06 11:20 | 39.11070 | -92.53343 | 35617 ft | 389 kts | 264° |
| 2026-05-06 11:20 | 39.11038 | -92.56842 | 35895 ft | 391 kts | 264° |
| 2026-05-06 11:20 | 39.11006 | -92.60350 | 36171 ft | 392 kts | 264° |
| 2026-05-06 11:20 | 39.10973 | -92.63858 | 36446 ft | 392 kts | 264° |
| 2026-05-06 11:21 | 39.10941 | -92.67373 | 36722 ft | 392 kts | 264° |
| 2026-05-06 11:21 | 39.10906 | -92.70838 | 36993 ft | 392 kts | 264° |
| 2026-05-06 11:21 | 39.10872 | -92.74346 | 37268 ft | 391 kts | 264° |
| 2026-05-06 11:21 | 39.10833 | -92.77854 | 37544 ft | 392 kts | 263° |
| 2026-05-06 11:22 | 39.10794 | -92.81319 | 37800 ft | 392 kts | 263° |
| 2026-05-06 11:22 | 39.10753 | -92.84888 | 38035 ft | 393 kts | 263° |
| 2026-05-06 11:22 | 39.10711 | -92.88403 | 38261 ft | 393 kts | 263° |
| 2026-05-06 11:22 | 39.10669 | -92.91915 | 38486 ft | 392 kts | 263° |
| 2026-05-06 11:23 | 39.10627 | -92.95436 | 38712 ft | 392 kts | 263° |
| 2026-05-06 11:23 | 39.10583 | -92.98933 | 38936 ft | 391 kts | 263° |
| 2026-05-06 11:23 | 39.10539 | -93.02426 | 39160 ft | 390 kts | 263° |
| 2026-05-06 11:23 | 39.10493 | -93.05921 | 39385 ft | 389 kts | 263° |
| 2026-05-06 11:24 | 39.10447 | -93.09397 | 39609 ft | 388 kts | 263° |
| 2026-05-06 11:24 | 39.10399 | -93.12862 | 39832 ft | 387 kts | 263° |
| 2026-05-06 11:24 | 39.10350 | -93.16327 | 39934 ft | 389 kts | 263° |
| 2026-05-06 11:25 | 39.10245 | -93.23311 | 39943 ft | 396 kts | 263° |
| 2026-05-06 11:25 | 39.10136 | -93.30425 | 39940 ft | 398 kts | 263° |
| 2026-05-06 11:26 | 39.10025 | -93.37580 | 39942 ft | 400 kts | 263° |
| 2026-05-06 11:26 | 39.09909 | -93.44721 | 39944 ft | 401 kts | 263° |
| 2026-05-06 11:27 | 39.09787 | -93.51960 | 39946 ft | 402 kts | 263° |
| 2026-05-06 11:27 | 39.09662 | -93.59124 | 39938 ft | 403 kts | 263° |
| 2026-05-06 11:28 | 39.09531 | -93.66350 | 39937 ft | 403 kts | 263° |
| 2026-05-06 11:28 | 39.09396 | -93.73575 | 39934 ft | 403 kts | 263° |
| 2026-05-06 11:29 | 39.09255 | -93.80797 | 39932 ft | 404 kts | 263° |
| 2026-05-06 11:29 | 39.09110 | -93.88028 | 39919 ft | 404 kts | 262° |
| 2026-05-06 11:30 | 39.08964 | -93.95198 | 39916 ft | 401 kts | 262° |
| 2026-05-06 11:30 | 39.08814 | -94.02362 | 39914 ft | 400 kts | 262° |
| 2026-05-06 11:31 | 39.08656 | -94.09510 | 39913 ft | 399 kts | 262° |
| 2026-05-06 11:31 | 39.08494 | -94.16659 | 39911 ft | 399 kts | 261° |
| 2026-05-06 11:32 | 39.08329 | -94.23755 | 39910 ft | 399 kts | 261° |
| 2026-05-06 11:32 | 39.08161 | -94.30896 | 39910 ft | 399 kts | 261° |
| 2026-05-06 11:33 | 39.07987 | -94.38042 | 39905 ft | 399 kts | 261° |
| 2026-05-06 11:33 | 39.07809 | -94.45179 | 39902 ft | 399 kts | 261° |
| 2026-05-06 11:34 | 39.07626 | -94.52316 | 39897 ft | 399 kts | 261° |
| 2026-05-06 11:34 | 39.07437 | -94.59472 | 39892 ft | 401 kts | 261° |
| 2026-05-06 11:35 | 39.07245 | -94.66611 | 39891 ft | 402 kts | 261° |
| 2026-05-06 11:35 | 39.07055 | -94.73820 | 39892 ft | 403 kts | 261° |
| 2026-05-06 11:36 | 39.06851 | -94.81034 | 39897 ft | 403 kts | 261° |
| 2026-05-06 11:36 | 39.06642 | -94.88256 | 39899 ft | 403 kts | 261° |
| 2026-05-06 11:37 | 39.06429 | -94.95464 | 39892 ft | 403 kts | 260° |
| 2026-05-06 11:37 | 39.06213 | -95.02676 | 39889 ft | 403 kts | 260° |
| 2026-05-06 11:38 | 39.05993 | -95.09887 | 39889 ft | 403 kts | 260° |
| 2026-05-06 11:38 | 39.05769 | -95.17099 | 39888 ft | 403 kts | 260° |
| 2026-05-06 11:39 | 39.05539 | -95.24323 | 39888 ft | 404 kts | 260° |
| 2026-05-06 11:39 | 39.05307 | -95.31501 | 39885 ft | 404 kts | 259° |
| 2026-05-06 11:40 | 39.05069 | -95.38731 | 39878 ft | 404 kts | 259° |
| 2026-05-06 11:40 | 39.04826 | -95.45963 | 39867 ft | 405 kts | 259° |
| 2026-05-06 11:41 | 39.04621 | -95.51982 | 39859 ft | 405 kts | 259° |
| 2026-05-06 11:41 | 39.04370 | -95.59222 | 39853 ft | 405 kts | 259° |
| 2026-05-06 11:42 | 39.04070 | -95.67647 | 39850 ft | 405 kts | 259° |
| 2026-05-06 11:42 | 39.03853 | -95.73661 | 39851 ft | 404 kts | 259° |
| 2026-05-06 11:43 | 39.03589 | -95.80885 | 39853 ft | 404 kts | 259° |
| 2026-05-06 11:43 | 39.03320 | -95.88101 | 39853 ft | 404 kts | 259° |
| 2026-05-06 11:44 | 39.02908 | -95.98922 | 39852 ft | 404 kts | 259° |
| 2026-05-06 11:44 | 39.02627 | -96.06148 | 39851 ft | 405 kts | 258° |
| 2026-05-06 11:45 | 39.02353 | -96.13394 | 39850 ft | 406 kts | 258° |
| 2026-05-06 11:45 | 39.02061 | -96.20595 | 39847 ft | 406 kts | 258° |
| 2026-05-06 11:46 | 39.01762 | -96.27846 | 39844 ft | 406 kts | 258° |
| 2026-05-06 11:46 | 39.01470 | -96.35108 | 39841 ft | 406 kts | 258° |
| 2026-05-06 11:47 | 39.01164 | -96.42357 | 39835 ft | 406 kts | 258° |
| 2026-05-06 11:47 | 39.00851 | -96.49601 | 39832 ft | 406 kts | 258° |
| 2026-05-06 11:48 | 39.00537 | -96.56852 | 39831 ft | 406 kts | 258° |
| 2026-05-06 11:48 | 39.00218 | -96.64095 | 39830 ft | 406 kts | 258° |
| 2026-05-06 11:49 | 38.99897 | -96.71370 | 39830 ft | 407 kts | 258° |
| 2026-05-06 11:49 | 38.99574 | -96.78647 | 39829 ft | 407 kts | 258° |
| 2026-05-06 11:50 | 38.99240 | -96.85875 | 39829 ft | 408 kts | 258° |
| 2026-05-06 11:50 | 38.98901 | -96.93160 | 39829 ft | 408 kts | 258° |
| 2026-05-06 11:51 | 38.98558 | -97.00451 | 39828 ft | 409 kts | 258° |
| 2026-05-06 11:51 | 38.98210 | -97.07746 | 39827 ft | 409 kts | 258° |
| 2026-05-06 11:52 | 38.97858 | -97.15047 | 39825 ft | 409 kts | 258° |
| 2026-05-06 11:52 | 38.97501 | -97.22355 | 39824 ft | 410 kts | 258° |
| 2026-05-06 11:53 | 38.97140 | -97.29662 | 39822 ft | 410 kts | 258° |
| 2026-05-06 11:53 | 38.96776 | -97.36933 | 39821 ft | 410 kts | 258° |
| 2026-05-06 11:54 | 38.96404 | -97.44259 | 39820 ft | 411 kts | 258° |
| 2026-05-06 11:54 | 38.96028 | -97.51581 | 39820 ft | 411 kts | 258° |
| 2026-05-06 11:55 | 38.95647 | -97.58914 | 39819 ft | 411 kts | 258° |
| 2026-05-06 11:55 | 38.95263 | -97.66252 | 39819 ft | 411 kts | 258° |
| 2026-05-06 11:56 | 38.94874 | -97.73592 | 39819 ft | 412 kts | 258° |
| 2026-05-06 11:56 | 38.94478 | -97.80930 | 39820 ft | 412 kts | 258° |
| 2026-05-06 11:57 | 38.94077 | -97.88274 | 39822 ft | 412 kts | 258° |
| 2026-05-06 11:57 | 38.93671 | -97.95618 | 39824 ft | 412 kts | 258° |
| 2026-05-06 11:58 | 38.93260 | -98.02963 | 39826 ft | 412 kts | 259° |
| 2026-05-06 11:58 | 38.92846 | -98.10287 | 39830 ft | 414 kts | 259° |
| 2026-05-06 11:59 | 38.92426 | -98.17675 | 39832 ft | 415 kts | 259° |
| 2026-05-06 11:59 | 38.92008 | -98.25072 | 39834 ft | 415 kts | 259° |
| 2026-05-06 12:00 | 38.91576 | -98.32468 | 39829 ft | 415 kts | 259° |
| 2026-05-06 12:00 | 38.91135 | -98.39854 | 39825 ft | 416 kts | 259° |
| 2026-05-06 12:01 | 38.90691 | -98.47261 | 39819 ft | 416 kts | 259° |
| 2026-05-06 12:01 | 38.90243 | -98.54692 | 39810 ft | 417 kts | 259° |
| 2026-05-06 12:02 | 38.89792 | -98.62107 | 39801 ft | 416 kts | 259° |
| 2026-05-06 12:02 | 38.89339 | -98.69466 | 39794 ft | 416 kts | 259° |
| 2026-05-06 12:03 | 38.88877 | -98.76881 | 39791 ft | 416 kts | 259° |
| 2026-05-06 12:03 | 38.88412 | -98.84294 | 39789 ft | 416 kts | 259° |
| 2026-05-06 12:04 | 38.87941 | -98.91701 | 39789 ft | 416 kts | 259° |
| 2026-05-06 12:04 | 38.87466 | -98.99108 | 39791 ft | 417 kts | 259° |
| 2026-05-06 12:05 | 38.86986 | -99.06519 | 39793 ft | 417 kts | 259° |
| 2026-05-06 12:05 | 38.86500 | -99.13951 | 39797 ft | 417 kts | 259° |
| 2026-05-06 12:06 | 38.86010 | -99.21372 | 39799 ft | 418 kts | 259° |
| 2026-05-06 12:06 | 38.85518 | -99.28763 | 39799 ft | 418 kts | 259° |
| 2026-05-06 12:07 | 38.85018 | -99.36190 | 39799 ft | 418 kts | 259° |
| 2026-05-06 12:07 | 38.84513 | -99.43621 | 39799 ft | 418 kts | 259° |
| 2026-05-06 12:08 | 38.84002 | -99.51063 | 39800 ft | 418 kts | 259° |
| 2026-05-06 12:08 | 38.83487 | -99.58499 | 39800 ft | 419 kts | 259° |
| 2026-05-06 12:09 | 38.82966 | -99.65939 | 39801 ft | 419 kts | 259° |
| 2026-05-06 12:09 | 38.82441 | -99.73383 | 39801 ft | 419 kts | 259° |
| 2026-05-06 12:10 | 38.81915 | -99.80827 | 39803 ft | 419 kts | 259° |
| 2026-05-06 12:10 | 38.81379 | -99.88274 | 39808 ft | 419 kts | 259° |
| 2026-05-06 12:11 | 38.80840 | -99.95675 | 39813 ft | 419 kts | 259° |
| 2026-05-06 12:11 | 38.80295 | -100.03120 | 39819 ft | 419 kts | 260° |
| 2026-05-06 12:12 | 38.79744 | -100.10573 | 39822 ft | 420 kts | 260° |
| 2026-05-06 12:12 | 38.79189 | -100.18036 | 39824 ft | 421 kts | 260° |
| 2026-05-06 12:13 | 38.78628 | -100.25509 | 39825 ft | 421 kts | 260° |
| 2026-05-06 12:13 | 38.78062 | -100.32981 | 39827 ft | 421 kts | 260° |
| 2026-05-06 12:14 | 38.77491 | -100.40453 | 39828 ft | 421 kts | 260° |
| 2026-05-06 12:14 | 38.76915 | -100.47921 | 39829 ft | 421 kts | 260° |
| 2026-05-06 12:15 | 38.76337 | -100.55354 | 39830 ft | 422 kts | 260° |
| 2026-05-06 12:15 | 38.75751 | -100.62835 | 39831 ft | 422 kts | 260° |
| 2026-05-06 12:16 | 38.75161 | -100.70315 | 39832 ft | 421 kts | 260° |
| 2026-05-06 12:16 | 38.74566 | -100.77782 | 39834 ft | 421 kts | 261° |
| 2026-05-06 12:17 | 38.73966 | -100.85250 | 39835 ft | 421 kts | 261° |
| 2026-05-06 12:17 | 38.73365 | -100.92681 | 39836 ft | 421 kts | 261° |
| 2026-05-06 12:18 | 38.72755 | -101.00152 | 39837 ft | 422 kts | 261° |
| 2026-05-06 12:18 | 38.72140 | -101.07630 | 39837 ft | 422 kts | 261° |
| 2026-05-06 12:19 | 38.71519 | -101.15117 | 39837 ft | 422 kts | 261° |
| 2026-05-06 12:19 | 38.70894 | -101.22593 | 39838 ft | 422 kts | 261° |
| 2026-05-06 12:20 | 38.70268 | -101.30025 | 39838 ft | 422 kts | 261° |
| 2026-05-06 12:20 | 38.69633 | -101.37511 | 39838 ft | 422 kts | 261° |
| 2026-05-06 12:21 | 38.68992 | -101.44994 | 39838 ft | 422 kts | 261° |
| 2026-05-06 12:21 | 38.68349 | -101.52460 | 39838 ft | 422 kts | 261° |
| 2026-05-06 12:22 | 38.67699 | -101.59941 | 39838 ft | 422 kts | 261° |
| 2026-05-06 12:22 | 38.67049 | -101.67370 | 39838 ft | 422 kts | 261° |
| 2026-05-06 12:23 | 38.66396 | -101.74824 | 39841 ft | 420 kts | 261° |
| 2026-05-06 12:23 | 38.66027 | -101.82287 | 39695 ft | 422 kts | 266° |
| 2026-05-06 12:24 | 38.65983 | -101.86043 | 39444 ft | 421 kts | 266° |
| 2026-05-06 12:24 | 38.65932 | -101.89774 | 39173 ft | 418 kts | 266° |
| 2026-05-06 12:24 | 38.65865 | -101.93473 | 38898 ft | 415 kts | 266° |
| 2026-05-06 12:24 | 38.65785 | -101.97158 | 38622 ft | 412 kts | 266° |
| 2026-05-06 12:25 | 38.65699 | -102.00807 | 38346 ft | 410 kts | 266° |
| 2026-05-06 12:25 | 38.65607 | -102.04448 | 38038 ft | 409 kts | 266° |
| 2026-05-06 12:25 | 38.65514 | -102.08088 | 37716 ft | 409 kts | 266° |
| 2026-05-06 12:25 | 38.65420 | -102.11686 | 37395 ft | 409 kts | 266° |
| 2026-05-06 12:26 | 38.65323 | -102.15326 | 37071 ft | 409 kts | 266° |
| 2026-05-06 12:26 | 38.65225 | -102.18971 | 36746 ft | 410 kts | 266° |
| 2026-05-06 12:26 | 38.65126 | -102.22614 | 36422 ft | 410 kts | 266° |
| 2026-05-06 12:26 | 38.65025 | -102.26262 | 36097 ft | 410 kts | 266° |
| 2026-05-06 12:27 | 38.64925 | -102.29870 | 35776 ft | 411 kts | 266° |
| 2026-05-06 12:27 | 38.64823 | -102.33530 | 35451 ft | 411 kts | 266° |
| 2026-05-06 12:27 | 38.64720 | -102.37188 | 35098 ft | 412 kts | 266° |
| 2026-05-06 12:27 | 38.64614 | -102.40858 | 34707 ft | 414 kts | 266° |
| 2026-05-06 12:28 | 38.64507 | -102.44538 | 34309 ft | 412 kts | 266° |
| 2026-05-06 12:28 | 38.64437 | -102.46959 | 34044 ft | 410 kts | 266° |
| 2026-05-06 12:28 | 38.64293 | -102.51813 | 33509 ft | 406 kts | 266° |
| 2026-05-06 12:28 | 38.64222 | -102.54188 | 33244 ft | 404 kts | 265° |
| 2026-05-06 12:29 | 38.64114 | -102.57771 | 32843 ft | 401 kts | 265° |
| 2026-05-06 12:29 | 38.64006 | -102.61320 | 32443 ft | 398 kts | 265° |
| 2026-05-06 12:29 | 38.63897 | -102.64860 | 32042 ft | 396 kts | 265° |
| 2026-05-06 12:29 | 38.63787 | -102.68380 | 31642 ft | 395 kts | 265° |
| 2026-05-06 12:30 | 38.63677 | -102.71890 | 31241 ft | 394 kts | 265° |
| 2026-05-06 12:30 | 38.63566 | -102.75390 | 30841 ft | 393 kts | 265° |
| 2026-05-06 12:30 | 38.63454 | -102.78888 | 30441 ft | 394 kts | 265° |
| 2026-05-06 12:30 | 38.63343 | -102.82332 | 30052 ft | 391 kts | 265° |
| 2026-05-06 12:31 | 38.63116 | -102.89257 | 29907 ft | 391 kts | 265° |
| 2026-05-06 12:31 | 38.62885 | -102.96193 | 29871 ft | 390 kts | 265° |
| 2026-05-06 12:32 | 38.62650 | -103.03113 | 29872 ft | 391 kts | 265° |
| 2026-05-06 12:32 | 38.62411 | -103.10025 | 29802 ft | 387 kts | 265° |
| 2026-05-06 12:33 | 38.62290 | -103.13471 | 29534 ft | 389 kts | 265° |
| 2026-05-06 12:33 | 38.62166 | -103.16932 | 29220 ft | 389 kts | 265° |
| 2026-05-06 12:33 | 38.62043 | -103.20383 | 28895 ft | 387 kts | 264° |
| 2026-05-06 12:33 | 38.61920 | -103.23800 | 28571 ft | 384 kts | 264° |
| 2026-05-06 12:34 | 38.61796 | -103.27214 | 28245 ft | 385 kts | 264° |